sensor_id;sensor_type;location;lat;lon;timestamp;temperature;humidity
20345;DHT22;10330;48.816;9.278;2023-06-22T07:06:31;24.30;99.90
20345;DHT22;10330;48.816;9.278;2023-06-22T07:08:59;24.40;99.90
20345;DHT22;10330;48.816;9.278;2023-06-22T07:11:26;24.50;99.90
20345;DHT22;10330;48.816;9.278;2023-06-22T07:13:52;24.70;99.90
20345;DHT22;10330;48.816;9.278;2023-06-22T07:16:18;24.70;99.90
20345;DHT22;10330;48.816;9.278;2023-06-22T07:18:45;24.80;99.90
20345;DHT22;10330;48.816;9.278;2023-06-22T07:21:11;24.90;99.90
20345;DHT22;10330;48.816;9.278;2023-06-22T07:23:37;25.00;99.90
20345;DHT22;10330;48.816;9.278;2023-06-22T07:26:03;25.10;99.90
20345;DHT22;10330;48.816;9.278;2023-06-22T07:28:32;25.10;99.90
20345;DHT22;10330;48.816;9.278;2023-06-22T07:31:03;25.20;99.90
20345;DHT22;10330;48.816;9.278;2023-06-22T07:33:30;25.20;99.90
20345;DHT22;10330;48.816;9.278;2023-06-22T07:35:56;25.30;99.90
20345;DHT22;10330;48.816;9.278;2023-06-22T07:38:22;25.40;99.90
20345;DHT22;10330;48.816;9.278;2023-06-22T07:40:48;25.40;99.90
20345;DHT22;10330;48.816;9.278;2023-06-22T07:43:15;25.40;99.90
20345;DHT22;10330;48.816;9.278;2023-06-22T07:45:51;25.50;99.90
20345;DHT22;10330;48.816;9.278;2023-06-22T07:48:20;25.50;99.90
20345;DHT22;10330;48.816;9.278;2023-06-22T07:50:48;25.60;99.90
20345;DHT22;10330;48.816;9.278;2023-06-22T07:53:14;25.70;99.90
20345;DHT22;10330;48.816;9.278;2023-06-22T07:55:40;25.80;99.90
20345;DHT22;10330;48.816;9.278;2023-06-22T07:58:07;25.80;99.90
20345;DHT22;10330;48.816;9.278;2023-06-22T08:00:34;25.90;99.90
20345;DHT22;10330;48.816;9.278;2023-06-22T08:03:00;26.00;99.90
20345;DHT22;10330;48.816;9.278;2023-06-22T08:05:31;26.00;99.90
20345;DHT22;10330;48.816;9.278;2023-06-22T08:07:57;26.10;99.90
20345;DHT22;10330;48.816;9.278;2023-06-22T08:10:24;26.20;99.90
20345;DHT22;10330;48.816;9.278;2023-06-22T08:12:50;26.20;99.90
20345;DHT22;10330;48.816;9.278;2023-06-22T08:15:18;26.20;99.90
20345;DHT22;10330;48.816;9.278;2023-06-22T08:17:45;26.30;99.90
20345;DHT22;10330;48.816;9.278;2023-06-22T08:20:12;26.40;99.90
20345;DHT22;10330;48.816;9.278;2023-06-22T08:22:41;26.50;99.90
20345;DHT22;10330;48.816;9.278;2023-06-22T08:25:09;26.50;99.90
20345;DHT22;10330;48.816;9.278;2023-06-22T08:27:35;26.70;99.90
20345;DHT22;10330;48.816;9.278;2023-06-22T08:30:03;26.80;99.90
20345;DHT22;10330;48.816;9.278;2023-06-22T08:32:29;27.00;99.90
20345;DHT22;10330;48.816;9.278;2023-06-22T08:34:56;27.20;99.90
20345;DHT22;10330;48.816;9.278;2023-06-22T08:37:23;27.40;99.90
20345;DHT22;10330;48.816;9.278;2023-06-22T08:39:58;27.50;99.90
20345;DHT22;10330;48.816;9.278;2023-06-22T08:42:25;27.60;99.90
20345;DHT22;10330;48.816;9.278;2023-06-22T08:44:51;27.70;99.90
20345;DHT22;10330;48.816;9.278;2023-06-22T08:47:18;27.90;99.90
20345;DHT22;10330;48.816;9.278;2023-06-22T08:49:44;28.00;99.90
20345;DHT22;10330;48.816;9.278;2023-06-22T08:52:10;28.20;99.90
20345;DHT22;10330;48.816;9.278;2023-06-22T08:54:36;28.20;99.90
20345;DHT22;10330;48.816;9.278;2023-06-22T08:57:02;28.10;99.90
20345;DHT22;10330;48.816;9.278;2023-06-22T08:59:28;28.00;99.90
20345;DHT22;10330;48.816;9.278;2023-06-22T09:01:54;27.90;99.90
20345;DHT22;10330;48.816;9.278;2023-06-22T09:04:21;27.70;99.90
20345;DHT22;10330;48.816;9.278;2023-06-22T09:06:50;27.70;99.90
20345;DHT22;10330;48.816;9.278;2023-06-22T09:09:18;27.80;99.90
20345;DHT22;10330;48.816;9.278;2023-06-22T09:11:44;28.00;99.90
20345;DHT22;10330;48.816;9.278;2023-06-22T09:14:11;28.10;99.90
20345;DHT22;10330;48.816;9.278;2023-06-22T09:16:37;28.10;99.90
20345;DHT22;10330;48.816;9.278;2023-06-22T09:19:03;28.10;99.90
20345;DHT22;10330;48.816;9.278;2023-06-22T09:21:29;28.30;99.90
20345;DHT22;10330;48.816;9.278;2023-06-22T09:23:56;28.30;99.90
20345;DHT22;10330;48.816;9.278;2023-06-22T09:26:22;28.30;99.90
20345;DHT22;10330;48.816;9.278;2023-06-22T09:28:50;28.30;99.90
20345;DHT22;10330;48.816;9.278;2023-06-22T09:31:16;28.30;99.90
20345;DHT22;10330;48.816;9.278;2023-06-22T09:33:43;28.40;99.90
20345;DHT22;10330;48.816;9.278;2023-06-22T09:36:09;28.40;99.90
20345;DHT22;10330;48.816;9.278;2023-06-22T09:38:36;28.40;99.90
20345;DHT22;10330;48.816;9.278;2023-06-22T09:41:02;28.50;99.90
20345;DHT22;10330;48.816;9.278;2023-06-22T09:43:29;28.50;99.90
20345;DHT22;10330;48.816;9.278;2023-06-22T09:45:55;28.50;99.90
20345;DHT22;10330;48.816;9.278;2023-06-22T09:48:22;28.50;99.90
20345;DHT22;10330;48.816;9.278;2023-06-22T09:50:48;28.40;99.90
20345;DHT22;10330;48.816;9.278;2023-06-22T09:53:14;28.50;99.90
20345;DHT22;10330;48.816;9.278;2023-06-22T09:55:41;28.60;99.90
20345;DHT22;10330;48.816;9.278;2023-06-22T09:58:07;28.80;99.90
20345;DHT22;10330;48.816;9.278;2023-06-22T10:00:34;28.80;99.90
20345;DHT22;10330;48.816;9.278;2023-06-22T10:03:00;29.00;99.90
20345;DHT22;10330;48.816;9.278;2023-06-22T10:05:26;29.10;99.90
20345;DHT22;10330;48.816;9.278;2023-06-22T10:07:53;29.20;99.90
20345;DHT22;10330;48.816;9.278;2023-06-22T10:10:19;29.20;99.90
20345;DHT22;10330;48.816;9.278;2023-06-22T10:12:54;29.20;99.90
20345;DHT22;10330;48.816;9.278;2023-06-22T10:15:21;29.40;99.90
20345;DHT22;10330;48.816;9.278;2023-06-22T10:17:47;29.40;99.90
20345;DHT22;10330;48.816;9.278;2023-06-22T10:20:14;29.50;99.90
20345;DHT22;10330;48.816;9.278;2023-06-22T10:22:44;29.60;99.90
20345;DHT22;10330;48.816;9.278;2023-06-22T10:25:12;29.60;99.90
20345;DHT22;10330;48.816;9.278;2023-06-22T10:27:39;29.60;99.90
20345;DHT22;10330;48.816;9.278;2023-06-22T10:30:10;29.80;99.90
20345;DHT22;10330;48.816;9.278;2023-06-22T10:32:39;29.80;99.90
20345;DHT22;10330;48.816;9.278;2023-06-22T10:35:05;29.70;99.90
20345;DHT22;10330;48.816;9.278;2023-06-22T10:37:32;29.80;99.90
20345;DHT22;10330;48.816;9.278;2023-06-22T10:39:58;30.00;99.90
20345;DHT22;10330;48.816;9.278;2023-06-22T10:42:24;30.20;99.90
20345;DHT22;10330;48.816;9.278;2023-06-22T10:44:50;30.30;99.90
20345;DHT22;10330;48.816;9.278;2023-06-22T10:47:17;30.40;99.90
20345;DHT22;10330;48.816;9.278;2023-06-22T10:49:43;30.50;99.90
20345;DHT22;10330;48.816;9.278;2023-06-22T10:52:09;30.60;99.90
20345;DHT22;10330;48.816;9.278;2023-06-22T10:54:36;30.60;99.90
20345;DHT22;10330;48.816;9.278;2023-06-22T11:00:50;30.60;99.90
20345;DHT22;10330;48.816;9.278;2023-06-22T11:03:16;30.60;99.90
20345;DHT22;10330;48.816;9.278;2023-06-22T11:05:42;30.60;99.90
20345;DHT22;10330;48.816;9.278;2023-06-22T11:08:11;30.60;99.90
20345;DHT22;10330;48.816;9.278;2023-06-22T11:10:38;30.60;99.90
20345;DHT22;10330;48.816;9.278;2023-06-22T11:13:04;30.70;99.90
20345;DHT22;10330;48.816;9.278;2023-06-22T11:15:31;30.70;99.90
20345;DHT22;10330;48.816;9.278;2023-06-22T11:17:57;30.70;99.90
20345;DHT22;10330;48.816;9.278;2023-06-22T11:20:23;30.70;99.90
20345;DHT22;10330;48.816;9.278;2023-06-22T11:22:49;30.80;99.90
20345;DHT22;10330;48.816;9.278;2023-06-22T11:25:16;30.80;99.90
20345;DHT22;10330;48.816;9.278;2023-06-22T11:27:42;30.70;99.90
20345;DHT22;10330;48.816;9.278;2023-06-22T11:30:08;30.80;99.90
20345;DHT22;10330;48.816;9.278;2023-06-22T11:32:35;30.90;99.90
20345;DHT22;10330;48.816;9.278;2023-06-22T11:35:01;31.00;99.90
20345;DHT22;10330;48.816;9.278;2023-06-22T11:37:27;31.00;99.90
20345;DHT22;10330;48.816;9.278;2023-06-22T11:39:54;30.80;99.90
20345;DHT22;10330;48.816;9.278;2023-06-22T11:42:20;30.90;99.90
20345;DHT22;10330;48.816;9.278;2023-06-22T11:44:49;30.70;99.90
20345;DHT22;10330;48.816;9.278;2023-06-22T11:47:15;30.80;99.90
20345;DHT22;10330;48.816;9.278;2023-06-22T11:49:42;30.90;99.90
20345;DHT22;10330;48.816;9.278;2023-06-22T11:52:08;30.90;99.90
20345;DHT22;10330;48.816;9.278;2023-06-22T11:54:34;31.20;99.90
20345;DHT22;10330;48.816;9.278;2023-06-22T11:57:00;31.60;99.90
20345;DHT22;10330;48.816;9.278;2023-06-22T11:59:26;31.90;99.90
20345;DHT22;10330;48.816;9.278;2023-06-22T12:01:52;32.00;99.90
20345;DHT22;10330;48.816;9.278;2023-06-22T12:04:19;31.80;99.90
20345;DHT22;10330;48.816;9.278;2023-06-22T12:06:48;31.40;99.90
20345;DHT22;10330;48.816;9.278;2023-06-22T12:09:14;31.60;99.90
20345;DHT22;10330;48.816;9.278;2023-06-22T12:11:40;31.60;99.90
20345;DHT22;10330;48.816;9.278;2023-06-22T12:14:06;31.70;99.90
20345;DHT22;10330;48.816;9.278;2023-06-22T12:16:32;31.70;99.90
20345;DHT22;10330;48.816;9.278;2023-06-22T12:18:58;31.80;99.90
20345;DHT22;10330;48.816;9.278;2023-06-22T12:21:25;31.80;99.90
20345;DHT22;10330;48.816;9.278;2023-06-22T12:23:51;31.80;99.90
20345;DHT22;10330;48.816;9.278;2023-06-22T12:26:17;31.70;99.90
20345;DHT22;10330;48.816;9.278;2023-06-22T12:28:43;31.70;99.90
20345;DHT22;10330;48.816;9.278;2023-06-22T12:31:09;31.60;99.90
20345;DHT22;10330;48.816;9.278;2023-06-22T12:33:35;31.60;99.90
20345;DHT22;10330;48.816;9.278;2023-06-22T12:36:02;31.60;99.90
20345;DHT22;10330;48.816;9.278;2023-06-22T12:38:29;31.60;99.90
20345;DHT22;10330;48.816;9.278;2023-06-22T12:40:55;31.60;99.90
20345;DHT22;10330;48.816;9.278;2023-06-22T12:43:21;31.50;99.90
20345;DHT22;10330;48.816;9.278;2023-06-22T12:45:47;31.40;99.90
20345;DHT22;10330;48.816;9.278;2023-06-22T12:48:13;31.30;99.90
20345;DHT22;10330;48.816;9.278;2023-06-22T12:50:39;31.20;99.90
20345;DHT22;10330;48.816;9.278;2023-06-22T12:53:06;31.10;99.90
20345;DHT22;10330;48.816;9.278;2023-06-22T12:55:32;31.00;99.90
20345;DHT22;10330;48.816;9.278;2023-06-22T12:57:58;31.00;99.90
20345;DHT22;10330;48.816;9.278;2023-06-22T13:00:24;30.90;99.90
20345;DHT22;10330;48.816;9.278;2023-06-22T13:02:50;30.90;99.90
20345;DHT22;10330;48.816;9.278;2023-06-22T13:05:16;30.90;99.90
20345;DHT22;10330;48.816;9.278;2023-06-22T13:07:43;30.90;99.90
20345;DHT22;10330;48.816;9.278;2023-06-22T13:10:09;30.90;99.90
20345;DHT22;10330;48.816;9.278;2023-06-22T13:12:35;30.90;99.90
20345;DHT22;10330;48.816;9.278;2023-06-22T13:15:01;30.90;99.90
20345;DHT22;10330;48.816;9.278;2023-06-22T13:17:29;30.90;99.90
20345;DHT22;10330;48.816;9.278;2023-06-22T13:19:55;30.90;99.90
20345;DHT22;10330;48.816;9.278;2023-06-22T13:22:35;30.90;99.90
20345;DHT22;10330;48.816;9.278;2023-06-22T13:25:09;30.90;99.90
20345;DHT22;10330;48.816;9.278;2023-06-22T13:27:40;31.00;99.90
20345;DHT22;10330;48.816;9.278;2023-06-22T13:30:08;31.20;99.90
20345;DHT22;10330;48.816;9.278;2023-06-22T13:32:34;31.40;99.90
20345;DHT22;10330;48.816;9.278;2023-06-22T13:35:00;31.50;99.90
20345;DHT22;10330;48.816;9.278;2023-06-22T13:37:26;31.70;99.90
20345;DHT22;10330;48.816;9.278;2023-06-22T13:39:53;31.80;99.90
20345;DHT22;10330;48.816;9.278;2023-06-22T13:42:21;32.00;99.90
20345;DHT22;10330;48.816;9.278;2023-06-22T13:44:48;32.10;99.90
20345;DHT22;10330;48.816;9.278;2023-06-22T13:47:14;32.20;99.90
20345;DHT22;10330;48.816;9.278;2023-06-22T13:49:40;32.30;99.90
20345;DHT22;10330;48.816;9.278;2023-06-22T13:52:06;32.40;99.90
20345;DHT22;10330;48.816;9.278;2023-06-22T13:54:36;32.50;99.90
20345;DHT22;10330;48.816;9.278;2023-06-22T13:57:03;32.40;99.90
20345;DHT22;10330;48.816;9.278;2023-06-22T13:59:35;32.40;99.90
20345;DHT22;10330;48.816;9.278;2023-06-22T14:02:01;32.30;99.90
20345;DHT22;10330;48.816;9.278;2023-06-22T14:04:28;32.20;99.90
20345;DHT22;10330;48.816;9.278;2023-06-22T14:06:54;32.20;99.90
20345;DHT22;10330;48.816;9.278;2023-06-22T14:09:21;32.00;99.90
20345;DHT22;10330;48.816;9.278;2023-06-22T14:11:48;32.00;99.90
20345;DHT22;10330;48.816;9.278;2023-06-22T14:14:14;32.00;99.90
20345;DHT22;10330;48.816;9.278;2023-06-22T14:16:40;32.30;99.90
20345;DHT22;10330;48.816;9.278;2023-06-22T14:19:06;32.40;99.90
20345;DHT22;10330;48.816;9.278;2023-06-22T14:21:32;32.60;99.90
20345;DHT22;10330;48.816;9.278;2023-06-22T14:23:58;33.20;99.90
20345;DHT22;10330;48.816;9.278;2023-06-22T14:26:24;33.80;99.90
20345;DHT22;10330;48.816;9.278;2023-06-22T14:28:52;34.50;99.90
20345;DHT22;10330;48.816;9.278;2023-06-22T14:31:19;35.10;99.90
20345;DHT22;10330;48.816;9.278;2023-06-22T14:33:47;35.10;99.90
20345;DHT22;10330;48.816;9.278;2023-06-22T14:36:14;34.50;99.90
20345;DHT22;10330;48.816;9.278;2023-06-22T14:38:40;33.90;99.90
20345;DHT22;10330;48.816;9.278;2023-06-22T14:41:07;33.70;99.90
20345;DHT22;10330;48.816;9.278;2023-06-22T14:43:33;33.70;99.90
20345;DHT22;10330;48.816;9.278;2023-06-22T14:45:59;33.80;99.90
20345;DHT22;10330;48.816;9.278;2023-06-22T14:48:26;34.30;99.90
20345;DHT22;10330;48.816;9.278;2023-06-22T14:50:53;35.00;99.90
20345;DHT22;10330;48.816;9.278;2023-06-22T14:53:20;35.50;99.90
20345;DHT22;10330;48.816;9.278;2023-06-22T14:55:46;35.50;99.90
20345;DHT22;10330;48.816;9.278;2023-06-22T14:58:12;35.50;99.20
20345;DHT22;10330;48.816;9.278;2023-06-22T15:00:38;35.00;97.80
20345;DHT22;10330;48.816;9.278;2023-06-22T15:03:05;34.50;99.00
20345;DHT22;10330;48.816;9.278;2023-06-22T15:05:33;34.40;99.80
20345;DHT22;10330;48.816;9.278;2023-06-22T15:07:59;34.50;99.40
20345;DHT22;10330;48.816;9.278;2023-06-22T15:10:25;34.80;99.60
20345;DHT22;10330;48.816;9.278;2023-06-22T15:12:51;34.80;99.20
20345;DHT22;10330;48.816;9.278;2023-06-22T15:15:18;34.50;99.50
20345;DHT22;10330;48.816;9.278;2023-06-22T15:17:44;34.10;98.20
20345;DHT22;10330;48.816;9.278;2023-06-22T15:20:10;34.20;98.10
20345;DHT22;10330;48.816;9.278;2023-06-22T15:22:38;34.30;95.90
20345;DHT22;10330;48.816;9.278;2023-06-22T15:25:05;34.50;95.00
20345;DHT22;10330;48.816;9.278;2023-06-22T15:27:31;35.10;93.80
20345;DHT22;10330;48.816;9.278;2023-06-22T15:29:57;34.80;90.60
20345;DHT22;10330;48.816;9.278;2023-06-22T15:32:23;35.10;89.00
20345;DHT22;10330;48.816;9.278;2023-06-22T15:34:49;35.40;87.90
20345;DHT22;10330;48.816;9.278;2023-06-22T15:37:17;35.00;86.50
20345;DHT22;10330;48.816;9.278;2023-06-22T15:39:43;34.80;86.80
20345;DHT22;10330;48.816;9.278;2023-06-22T15:42:09;35.00;86.30
20345;DHT22;10330;48.816;9.278;2023-06-22T15:44:35;34.80;85.20
20345;DHT22;10330;48.816;9.278;2023-06-22T15:47:02;34.70;85.20
20345;DHT22;10330;48.816;9.278;2023-06-22T15:49:28;34.50;85.90
20345;DHT22;10330;48.816;9.278;2023-06-22T15:51:54;34.20;85.50
20345;DHT22;10330;48.816;9.278;2023-06-22T15:54:20;34.10;85.80
20345;DHT22;10330;48.816;9.278;2023-06-22T15:56:46;33.80;85.30
20345;DHT22;10330;48.816;9.278;2023-06-22T15:59:12;33.70;85.10
20345;DHT22;10330;48.816;9.278;2023-06-22T16:01:38;33.50;85.30
20345;DHT22;10330;48.816;9.278;2023-06-22T16:04:04;33.40;86.10
20345;DHT22;10330;48.816;9.278;2023-06-22T16:06:33;33.30;87.20
20345;DHT22;10330;48.816;9.278;2023-06-22T16:08:59;33.20;86.20
20345;DHT22;10330;48.816;9.278;2023-06-22T16:11:25;33.10;86.90
20345;DHT22;10330;48.816;9.278;2023-06-22T16:13:51;32.70;88.00
20345;DHT22;10330;48.816;9.278;2023-06-22T16:16:17;32.40;88.60
20345;DHT22;10330;48.816;9.278;2023-06-22T16:18:44;32.30;89.30
20345;DHT22;10330;48.816;9.278;2023-06-22T16:21:11;32.10;90.20
20345;DHT22;10330;48.816;9.278;2023-06-22T16:23:38;31.90;90.40
20345;DHT22;10330;48.816;9.278;2023-06-22T16:26:04;31.70;90.50
20345;DHT22;10330;48.816;9.278;2023-06-22T16:28:31;31.60;90.80
20345;DHT22;10330;48.816;9.278;2023-06-22T16:30:57;31.50;91.00
20345;DHT22;10330;48.816;9.278;2023-06-22T16:33:23;31.40;91.20
20345;DHT22;10330;48.816;9.278;2023-06-22T16:35:51;31.20;91.40
20345;DHT22;10330;48.816;9.278;2023-06-22T16:38:17;31.20;91.80
20345;DHT22;10330;48.816;9.278;2023-06-22T16:40:49;31.10;92.20
20345;DHT22;10330;48.816;9.278;2023-06-22T16:43:18;31.00;92.20
20345;DHT22;10330;48.816;9.278;2023-06-22T16:45:44;31.10;92.30
20345;DHT22;10330;48.816;9.278;2023-06-22T16:48:10;31.00;92.20
20345;DHT22;10330;48.816;9.278;2023-06-22T16:50:36;30.90;92.20
20345;DHT22;10330;48.816;9.278;2023-06-22T16:53:03;30.90;92.50
20345;DHT22;10330;48.816;9.278;2023-06-22T16:55:29;30.70;91.80
20345;DHT22;10330;48.816;9.278;2023-06-22T16:57:57;30.70;92.30
20345;DHT22;10330;48.816;9.278;2023-06-22T17:00:24;30.70;92.60
20345;DHT22;10330;48.816;9.278;2023-06-22T17:02:51;30.70;92.70
20345;DHT22;10330;48.816;9.278;2023-06-22T17:05:18;30.70;92.70
20345;DHT22;10330;48.816;9.278;2023-06-22T17:07:52;30.70;92.70
20345;DHT22;10330;48.816;9.278;2023-06-22T17:10:20;31.00;92.60
20345;DHT22;10330;48.816;9.278;2023-06-22T17:12:47;31.00;92.90
20345;DHT22;10330;48.816;9.278;2023-06-22T17:15:14;30.70;92.80
20345;DHT22;10330;48.816;9.278;2023-06-22T17:17:40;30.50;93.20
20345;DHT22;10330;48.816;9.278;2023-06-22T17:20:09;30.30;93.40
20345;DHT22;10330;48.816;9.278;2023-06-22T17:22:36;30.20;93.80
20345;DHT22;10330;48.816;9.278;2023-06-22T17:25:08;30.10;94.20
20345;DHT22;10330;48.816;9.278;2023-06-22T17:27:39;30.20;94.70
20345;DHT22;10330;48.816;9.278;2023-06-22T17:30:12;30.30;94.80
20345;DHT22;10330;48.816;9.278;2023-06-22T17:36:58;30.20;95.40
20345;DHT22;10330;48.816;9.278;2023-06-22T18:03:36;28.60;95.60
20345;DHT22;10330;48.816;9.278;2023-06-22T18:11:22;28.20;97.00
20345;DHT22;10330;48.816;9.278;2023-06-22T18:15:30;28.10;97.90
20345;DHT22;10330;48.816;9.278;2023-06-22T18:18:07;28.00;98.30
20345;DHT22;10330;48.816;9.278;2023-06-22T18:20:34;27.90;98.40
20345;DHT22;10330;48.816;9.278;2023-06-22T18:23:03;27.90;98.30
20345;DHT22;10330;48.816;9.278;2023-06-22T18:25:33;27.70;98.60
20345;DHT22;10330;48.816;9.278;2023-06-22T18:28:00;27.60;98.70
20345;DHT22;10330;48.816;9.278;2023-06-22T18:30:28;27.60;99.10
20345;DHT22;10330;48.816;9.278;2023-06-22T18:32:55;27.50;99.30
20345;DHT22;10330;48.816;9.278;2023-06-22T18:35:25;27.30;99.80
20345;DHT22;10330;48.816;9.278;2023-06-22T18:37:52;27.10;99.90
20345;DHT22;10330;48.816;9.278;2023-06-22T18:40:20;27.00;99.90
20345;DHT22;10330;48.816;9.278;2023-06-22T18:42:47;27.00;99.90
20345;DHT22;10330;48.816;9.278;2023-06-22T18:45:27;26.80;99.90
20345;DHT22;10330;48.816;9.278;2023-06-22T18:50:43;26.70;99.90
20345;DHT22;10330;48.816;9.278;2023-06-22T18:53:26;26.60;99.90
20345;DHT22;10330;48.816;9.278;2023-06-22T18:56:11;26.60;99.90
20345;DHT22;10330;48.816;9.278;2023-06-22T18:58:37;26.50;99.90
20345;DHT22;10330;48.816;9.278;2023-06-22T19:01:24;26.40;99.90
20345;DHT22;10330;48.816;9.278;2023-06-22T19:03:52;26.40;99.90
20345;DHT22;10330;48.816;9.278;2023-06-22T19:09:19;26.20;99.90
20345;DHT22;10330;48.816;9.278;2023-06-22T19:11:55;26.10;99.90
20345;DHT22;10330;48.816;9.278;2023-06-22T19:14:32;26.20;99.90
20345;DHT22;10330;48.816;9.278;2023-06-22T19:16:59;26.30;99.90
20345;DHT22;10330;48.816;9.278;2023-06-22T19:19:26;26.20;99.90
20345;DHT22;10330;48.816;9.278;2023-06-22T19:21:58;26.20;99.90
20345;DHT22;10330;48.816;9.278;2023-06-22T19:24:29;26.20;99.90
20345;DHT22;10330;48.816;9.278;2023-06-22T19:26:56;26.20;99.90
20345;DHT22;10330;48.816;9.278;2023-06-22T19:29:23;26.20;99.90
20345;DHT22;10330;48.816;9.278;2023-06-22T19:31:50;26.20;99.90
20345;DHT22;10330;48.816;9.278;2023-06-22T19:34:16;26.00;99.90
20345;DHT22;10330;48.816;9.278;2023-06-22T19:36:42;26.00;99.90
20345;DHT22;10330;48.816;9.278;2023-06-22T19:39:13;25.80;99.90
20345;DHT22;10330;48.816;9.278;2023-06-22T19:41:39;25.70;99.90
20345;DHT22;10330;48.816;9.278;2023-06-22T19:44:09;25.60;99.90
20345;DHT22;10330;48.816;9.278;2023-06-22T19:46:35;25.40;99.90
20345;DHT22;10330;48.816;9.278;2023-06-22T19:49:02;25.30;99.90
20345;DHT22;10330;48.816;9.278;2023-06-22T19:51:34;25.20;99.90
20345;DHT22;10330;48.816;9.278;2023-06-22T19:54:08;25.10;99.90
20345;DHT22;10330;48.816;9.278;2023-06-22T19:56:38;25.00;99.90
20345;DHT22;10330;48.816;9.278;2023-06-22T19:59:19;24.90;99.90
20345;DHT22;10330;48.816;9.278;2023-06-22T20:01:50;24.80;99.90
20345;DHT22;10330;48.816;9.278;2023-06-22T20:04:17;24.70;99.90
20345;DHT22;10330;48.816;9.278;2023-06-22T20:09:28;24.40;99.90
20345;DHT22;10330;48.816;9.278;2023-06-22T20:11:58;24.40;99.90
20345;DHT22;10330;48.816;9.278;2023-06-22T20:14:32;24.40;99.90
20345;DHT22;10330;48.816;9.278;2023-06-22T20:17:04;24.30;99.90
20345;DHT22;10330;48.816;9.278;2023-06-22T20:19:35;24.20;99.90
20345;DHT22;10330;48.816;9.278;2023-06-22T20:22:06;24.10;99.90
20345;DHT22;10330;48.816;9.278;2023-06-22T20:24:33;24.10;99.90
20345;DHT22;10330;48.816;9.278;2023-06-22T20:27:18;24.10;99.90
20345;DHT22;10330;48.816;9.278;2023-06-22T20:30:12;24.10;99.90
20345;DHT22;10330;48.816;9.278;2023-06-22T20:33:03;24.00;99.90
20345;DHT22;10330;48.816;9.278;2023-06-22T20:35:35;24.00;99.90
20345;DHT22;10330;48.816;9.278;2023-06-22T20:38:09;23.90;99.90
20345;DHT22;10330;48.816;9.278;2023-06-22T20:40:39;23.90;99.90
20345;DHT22;10330;48.816;9.278;2023-06-22T20:43:05;23.80;99.90
20345;DHT22;10330;48.816;9.278;2023-06-22T20:45:34;23.80;99.90
20345;DHT22;10330;48.816;9.278;2023-06-22T20:48:01;23.90;99.90
20345;DHT22;10330;48.816;9.278;2023-06-22T20:50:30;23.90;99.90
20345;DHT22;10330;48.816;9.278;2023-06-22T20:53:01;23.90;99.90
20345;DHT22;10330;48.816;9.278;2023-06-22T20:55:28;23.90;99.90
20345;DHT22;10330;48.816;9.278;2023-06-22T20:57:55;23.90;99.90
20345;DHT22;10330;48.816;9.278;2023-06-22T21:08:14;23.80;99.90
20345;DHT22;10330;48.816;9.278;2023-06-22T21:11:11;23.80;99.90
20345;DHT22;10330;48.816;9.278;2023-06-22T21:14:01;23.70;99.90
20345;DHT22;10330;48.816;9.278;2023-06-22T21:16:50;23.50;99.90
20345;DHT22;10330;48.816;9.278;2023-06-22T21:23:46;23.20;99.90
20345;DHT22;10330;48.816;9.278;2023-06-22T21:40:24;22.80;99.90
20345;DHT22;10330;48.816;9.278;2023-06-22T21:42:50;22.70;99.90
20345;DHT22;10330;48.816;9.278;2023-06-22T21:45:16;22.50;99.90
20345;DHT22;10330;48.816;9.278;2023-06-22T21:47:43;22.40;99.90
20345;DHT22;10330;48.816;9.278;2023-06-22T21:50:09;22.40;99.90
20345;DHT22;10330;48.816;9.278;2023-06-22T21:52:36;22.40;99.90
20345;DHT22;10330;48.816;9.278;2023-06-22T21:55:02;22.30;99.90
20345;DHT22;10330;48.816;9.278;2023-06-22T21:57:29;22.20;99.90
20345;DHT22;10330;48.816;9.278;2023-06-22T21:59:56;22.10;99.90
20345;DHT22;10330;48.816;9.278;2023-06-22T22:02:22;22.10;99.90
20345;DHT22;10330;48.816;9.278;2023-06-22T22:04:52;22.00;99.90
20345;DHT22;10330;48.816;9.278;2023-06-22T22:07:18;22.00;99.90
20345;DHT22;10330;48.816;9.278;2023-06-22T22:09:45;22.00;99.90
20345;DHT22;10330;48.816;9.278;2023-06-22T22:12:12;22.10;99.90
20345;DHT22;10330;48.816;9.278;2023-06-22T22:14:38;22.10;99.90
20345;DHT22;10330;48.816;9.278;2023-06-22T22:17:10;22.10;99.90
20345;DHT22;10330;48.816;9.278;2023-06-22T22:20:02;22.00;99.90
20345;DHT22;10330;48.816;9.278;2023-06-22T22:23:00;21.90;99.90
20345;DHT22;10330;48.816;9.278;2023-06-22T22:25:46;21.80;99.90
20345;DHT22;10330;48.816;9.278;2023-06-22T22:28:19;21.80;99.90
20345;DHT22;10330;48.816;9.278;2023-06-22T22:30:55;21.70;99.90
20345;DHT22;10330;48.816;9.278;2023-06-22T22:33:27;21.70;99.90
20345;DHT22;10330;48.816;9.278;2023-06-22T22:35:59;21.70;99.90
20345;DHT22;10330;48.816;9.278;2023-06-22T22:38:32;21.70;99.90
20345;DHT22;10330;48.816;9.278;2023-06-22T22:41:04;21.70;99.90
20345;DHT22;10330;48.816;9.278;2023-06-22T22:43:31;21.70;99.90
20345;DHT22;10330;48.816;9.278;2023-06-22T22:45:58;21.60;99.90
20345;DHT22;10330;48.816;9.278;2023-06-22T22:48:25;21.60;99.90
20345;DHT22;10330;48.816;9.278;2023-06-22T22:51:01;21.50;99.90
20345;DHT22;10330;48.816;9.278;2023-06-22T22:53:34;21.50;99.90
20345;DHT22;10330;48.816;9.278;2023-06-22T22:56:52;21.50;99.90
20345;DHT22;10330;48.816;9.278;2023-06-22T23:00:10;21.40;99.90
20345;DHT22;10330;48.816;9.278;2023-06-22T23:02:39;21.40;99.90
20345;DHT22;10330;48.816;9.278;2023-06-22T23:05:05;21.40;99.90
20345;DHT22;10330;48.816;9.278;2023-06-22T23:07:32;21.40;99.90
20345;DHT22;10330;48.816;9.278;2023-06-22T23:10:01;21.50;99.90
20345;DHT22;10330;48.816;9.278;2023-06-22T23:12:30;21.40;99.90
20345;DHT22;10330;48.816;9.278;2023-06-22T23:15:02;21.50;99.90
20345;DHT22;10330;48.816;9.278;2023-06-22T23:17:28;21.50;99.90
20345;DHT22;10330;48.816;9.278;2023-06-22T23:19:55;21.60;99.90
20345;DHT22;10330;48.816;9.278;2023-06-22T23:22:21;21.60;99.90
20345;DHT22;10330;48.816;9.278;2023-06-22T23:24:47;21.60;99.90
20345;DHT22;10330;48.816;9.278;2023-06-22T23:27:14;21.50;99.90
20345;DHT22;10330;48.816;9.278;2023-06-22T23:29:42;21.60;99.90
20345;DHT22;10330;48.816;9.278;2023-06-22T23:32:15;21.60;99.90
